sensor_id;sensor_type;location;lat;lon;timestamp;temperature;humidity
10903;DHT22;5504;47.312;11.060;2024-02-23T00:00:11;9.10;91.40
10903;DHT22;5504;47.312;11.060;2024-02-23T00:02:38;9.20;91.60
10903;DHT22;5504;47.312;11.060;2024-02-23T00:05:04;9.30;91.30
10903;DHT22;5504;47.312;11.060;2024-02-23T00:07:30;9.30;91.10
10903;DHT22;5504;47.312;11.060;2024-02-23T00:09:55;9.20;90.80
10903;DHT22;5504;47.312;11.060;2024-02-23T00:12:21;9.30;90.90
10903;DHT22;5504;47.312;11.060;2024-02-23T00:14:47;9.30;91.10
10903;DHT22;5504;47.312;11.060;2024-02-23T00:17:13;8.60;91.70
10903;DHT22;5504;47.312;11.060;2024-02-23T00:19:39;8.70;92.00
10903;DHT22;5504;47.312;11.060;2024-02-23T00:22:04;8.90;92.10
10903;DHT22;5504;47.312;11.060;2024-02-23T00:24:30;9.00;92.00
10903;DHT22;5504;47.312;11.060;2024-02-23T00:26:56;9.20;91.90
10903;DHT22;5504;47.312;11.060;2024-02-23T00:29:22;9.30;91.70
10903;DHT22;5504;47.312;11.060;2024-02-23T00:31:49;9.40;91.60
10903;DHT22;5504;47.312;11.060;2024-02-23T00:34:15;9.20;91.50
10903;DHT22;5504;47.312;11.060;2024-02-23T00:36:41;9.10;91.60
10903;DHT22;5504;47.312;11.060;2024-02-23T00:39:07;9.20;91.70
10903;DHT22;5504;47.312;11.060;2024-02-23T00:41:34;9.20;91.80
10903;DHT22;5504;47.312;11.060;2024-02-23T00:44:01;9.30;91.80
10903;DHT22;5504;47.312;11.060;2024-02-23T00:46:26;9.30;91.70
10903;DHT22;5504;47.312;11.060;2024-02-23T00:48:52;9.30;91.70
10903;DHT22;5504;47.312;11.060;2024-02-23T00:51:18;9.30;91.60
10903;DHT22;5504;47.312;11.060;2024-02-23T00:53:43;9.30;91.20
10903;DHT22;5504;47.312;11.060;2024-02-23T00:56:09;9.30;91.40
10903;DHT22;5504;47.312;11.060;2024-02-23T00:58:35;9.20;91.70
10903;DHT22;5504;47.312;11.060;2024-02-23T01:01:01;9.20;91.90
10903;DHT22;5504;47.312;11.060;2024-02-23T01:03:26;9.30;91.90
10903;DHT22;5504;47.312;11.060;2024-02-23T01:05:52;9.30;91.90
10903;DHT22;5504;47.312;11.060;2024-02-23T01:08:18;9.20;92.00
10903;DHT22;5504;47.312;11.060;2024-02-23T01:10:44;9.00;92.20
10903;DHT22;5504;47.312;11.060;2024-02-23T01:13:10;9.00;92.50
10903;DHT22;5504;47.312;11.060;2024-02-23T01:15:37;9.10;92.60
10903;DHT22;5504;47.312;11.060;2024-02-23T01:18:03;9.20;92.60
10903;DHT22;5504;47.312;11.060;2024-02-23T01:20:31;9.10;92.50
10903;DHT22;5504;47.312;11.060;2024-02-23T01:22:57;9.20;92.60
10903;DHT22;5504;47.312;11.060;2024-02-23T01:25:22;9.20;92.70
10903;DHT22;5504;47.312;11.060;2024-02-23T01:27:48;9.30;92.70
10903;DHT22;5504;47.312;11.060;2024-02-23T01:30:14;9.30;92.70
10903;DHT22;5504;47.312;11.060;2024-02-23T01:32:40;9.30;92.60
10903;DHT22;5504;47.312;11.060;2024-02-23T01:35:06;9.40;92.50
10903;DHT22;5504;47.312;11.060;2024-02-23T01:37:33;9.20;92.40
10903;DHT22;5504;47.312;11.060;2024-02-23T01:40:00;9.30;92.50
10903;DHT22;5504;47.312;11.060;2024-02-23T01:42:26;9.30;92.50
10903;DHT22;5504;47.312;11.060;2024-02-23T01:44:52;9.30;92.60
10903;DHT22;5504;47.312;11.060;2024-02-23T01:47:18;9.30;92.50
10903;DHT22;5504;47.312;11.060;2024-02-23T01:49:45;9.30;92.60
10903;DHT22;5504;47.312;11.060;2024-02-23T01:52:13;9.20;92.50
10903;DHT22;5504;47.312;11.060;2024-02-23T01:54:39;9.10;92.40
10903;DHT22;5504;47.312;11.060;2024-02-23T01:57:06;9.00;92.20
10903;DHT22;5504;47.312;11.060;2024-02-23T01:59:37;9.10;92.40
10903;DHT22;5504;47.312;11.060;2024-02-23T02:02:04;9.20;92.30
10903;DHT22;5504;47.312;11.060;2024-02-23T02:04:30;9.20;92.10
10903;DHT22;5504;47.312;11.060;2024-02-23T02:06:59;9.20;92.20
10903;DHT22;5504;47.312;11.060;2024-02-23T02:09:26;9.00;92.40
10903;DHT22;5504;47.312;11.060;2024-02-23T02:11:52;9.10;92.40
10903;DHT22;5504;47.312;11.060;2024-02-23T02:14:18;9.20;92.50
10903;DHT22;5504;47.312;11.060;2024-02-23T02:16:44;9.30;92.50
10903;DHT22;5504;47.312;11.060;2024-02-23T02:19:11;9.10;92.50
10903;DHT22;5504;47.312;11.060;2024-02-23T02:21:37;9.10;92.80
10903;DHT22;5504;47.312;11.060;2024-02-23T02:24:03;9.20;92.20
10903;DHT22;5504;47.312;11.060;2024-02-23T02:26:32;9.10;92.30
10903;DHT22;5504;47.312;11.060;2024-02-23T02:28:58;9.10;92.40
10903;DHT22;5504;47.312;11.060;2024-02-23T02:31:24;9.10;92.50
10903;DHT22;5504;47.312;11.060;2024-02-23T02:33:49;9.10;92.40
10903;DHT22;5504;47.312;11.060;2024-02-23T02:36:15;9.00;91.90
10903;DHT22;5504;47.312;11.060;2024-02-23T02:38:41;8.90;91.50
10903;DHT22;5504;47.312;11.060;2024-02-23T02:41:07;8.80;91.60
10903;DHT22;5504;47.312;11.060;2024-02-23T02:43:32;8.80;91.90
10903;DHT22;5504;47.312;11.060;2024-02-23T02:45:58;8.80;92.10
10903;DHT22;5504;47.312;11.060;2024-02-23T02:48:24;8.70;92.00
10903;DHT22;5504;47.312;11.060;2024-02-23T02:50:51;8.70;92.20
10903;DHT22;5504;47.312;11.060;2024-02-23T02:53:17;8.70;92.20
10903;DHT22;5504;47.312;11.060;2024-02-23T02:55:44;8.60;92.20
10903;DHT22;5504;47.312;11.060;2024-02-23T02:58:11;8.60;92.20
10903;DHT22;5504;47.312;11.060;2024-02-23T03:00:38;8.50;91.90
10903;DHT22;5504;47.312;11.060;2024-02-23T03:03:04;8.30;91.40
10903;DHT22;5504;47.312;11.060;2024-02-23T03:05:30;8.30;91.60
10903;DHT22;5504;47.312;11.060;2024-02-23T03:07:56;8.10;91.60
10903;DHT22;5504;47.312;11.060;2024-02-23T03:10:21;8.10;91.70
10903;DHT22;5504;47.312;11.060;2024-02-23T03:12:47;7.80;91.70
10903;DHT22;5504;47.312;11.060;2024-02-23T03:15:13;7.90;91.80
10903;DHT22;5504;47.312;11.060;2024-02-23T03:17:39;8.00;91.70
10903;DHT22;5504;47.312;11.060;2024-02-23T03:20:05;7.80;91.60
10903;DHT22;5504;47.312;11.060;2024-02-23T03:22:37;7.90;91.70
10903;DHT22;5504;47.312;11.060;2024-02-23T03:25:04;7.90;91.40
10903;DHT22;5504;47.312;11.060;2024-02-23T03:27:34;7.70;90.60
10903;DHT22;5504;47.312;11.060;2024-02-23T03:30:02;7.50;91.30
10903;DHT22;5504;47.312;11.060;2024-02-23T03:32:28;7.20;91.70
10903;DHT22;5504;47.312;11.060;2024-02-23T03:34:54;7.10;92.20
10903;DHT22;5504;47.312;11.060;2024-02-23T03:37:20;7.20;92.20
10903;DHT22;5504;47.312;11.060;2024-02-23T03:39:45;7.30;92.20
10903;DHT22;5504;47.312;11.060;2024-02-23T03:42:14;7.40;91.90
10903;DHT22;5504;47.312;11.060;2024-02-23T03:44:39;7.50;91.70
10903;DHT22;5504;47.312;11.060;2024-02-23T03:47:07;7.40;91.50
10903;DHT22;5504;47.312;11.060;2024-02-23T03:49:33;7.40;91.80
10903;DHT22;5504;47.312;11.060;2024-02-23T03:51:58;7.40;91.70
10903;DHT22;5504;47.312;11.060;2024-02-23T03:54:24;7.40;91.80
10903;DHT22;5504;47.312;11.060;2024-02-23T03:56:50;7.50;91.80
10903;DHT22;5504;47.312;11.060;2024-02-23T03:59:15;7.50;91.60
10903;DHT22;5504;47.312;11.060;2024-02-23T04:01:41;7.50;91.40
10903;DHT22;5504;47.312;11.060;2024-02-23T04:04:07;7.30;91.40
10903;DHT22;5504;47.312;11.060;2024-02-23T04:06:34;7.10;91.60
10903;DHT22;5504;47.312;11.060;2024-02-23T04:09:00;7.10;91.70
10903;DHT22;5504;47.312;11.060;2024-02-23T04:11:25;7.00;91.80
10903;DHT22;5504;47.312;11.060;2024-02-23T04:13:51;7.20;92.00
10903;DHT22;5504;47.312;11.060;2024-02-23T04:16:17;7.00;91.80
10903;DHT22;5504;47.312;11.060;2024-02-23T04:18:43;7.00;91.80
10903;DHT22;5504;47.312;11.060;2024-02-23T04:21:08;6.90;91.60
10903;DHT22;5504;47.312;11.060;2024-02-23T04:23:34;6.90;91.70
10903;DHT22;5504;47.312;11.060;2024-02-23T04:26:00;7.00;92.10
10903;DHT22;5504;47.312;11.060;2024-02-23T04:28:25;7.10;92.50
10903;DHT22;5504;47.312;11.060;2024-02-23T04:30:56;7.20;92.60
10903;DHT22;5504;47.312;11.060;2024-02-23T04:33:22;7.30;92.70
10903;DHT22;5504;47.312;11.060;2024-02-23T04:35:48;7.40;92.60
10903;DHT22;5504;47.312;11.060;2024-02-23T04:38:13;7.40;92.50
10903;DHT22;5504;47.312;11.060;2024-02-23T04:40:39;7.40;92.50
10903;DHT22;5504;47.312;11.060;2024-02-23T04:43:05;7.40;92.70
10903;DHT22;5504;47.312;11.060;2024-02-23T04:45:31;7.40;92.60
10903;DHT22;5504;47.312;11.060;2024-02-23T04:47:56;7.40;92.50
10903;DHT22;5504;47.312;11.060;2024-02-23T04:50:22;7.40;92.50
10903;DHT22;5504;47.312;11.060;2024-02-23T04:52:48;7.40;92.60
10903;DHT22;5504;47.312;11.060;2024-02-23T04:55:15;7.40;92.40
10903;DHT22;5504;47.312;11.060;2024-02-23T04:57:41;7.40;92.50
10903;DHT22;5504;47.312;11.060;2024-02-23T05:00:07;7.30;92.60
10903;DHT22;5504;47.312;11.060;2024-02-23T05:02:33;7.30;92.70
10903;DHT22;5504;47.312;11.060;2024-02-23T05:05:04;7.40;92.70
10903;DHT22;5504;47.312;11.060;2024-02-23T05:07:33;7.40;92.60
10903;DHT22;5504;47.312;11.060;2024-02-23T05:09:59;7.40;92.70
10903;DHT22;5504;47.312;11.060;2024-02-23T05:12:25;7.40;92.50
10903;DHT22;5504;47.312;11.060;2024-02-23T05:14:51;7.20;92.40
10903;DHT22;5504;47.312;11.060;2024-02-23T05:17:17;7.10;92.50
10903;DHT22;5504;47.312;11.060;2024-02-23T05:19:43;7.10;92.60
10903;DHT22;5504;47.312;11.060;2024-02-23T05:22:09;7.10;92.70
10903;DHT22;5504;47.312;11.060;2024-02-23T05:24:35;7.10;92.80
10903;DHT22;5504;47.312;11.060;2024-02-23T05:27:01;7.10;92.70
10903;DHT22;5504;47.312;11.060;2024-02-23T05:29:29;7.10;92.60
10903;DHT22;5504;47.312;11.060;2024-02-23T05:31:55;7.10;92.50
10903;DHT22;5504;47.312;11.060;2024-02-23T05:34:21;7.10;92.20
10903;DHT22;5504;47.312;11.060;2024-02-23T05:36:47;7.10;92.20
10903;DHT22;5504;47.312;11.060;2024-02-23T05:39:14;7.00;92.20
10903;DHT22;5504;47.312;11.060;2024-02-23T05:41:43;7.00;92.00
10903;DHT22;5504;47.312;11.060;2024-02-23T05:44:09;6.90;91.70
10903;DHT22;5504;47.312;11.060;2024-02-23T05:46:36;6.70;91.40
10903;DHT22;5504;47.312;11.060;2024-02-23T05:49:02;6.70;91.70
10903;DHT22;5504;47.312;11.060;2024-02-23T05:51:30;6.70;91.70
10903;DHT22;5504;47.312;11.060;2024-02-23T05:53:56;6.60;91.60
10903;DHT22;5504;47.312;11.060;2024-02-23T05:56:22;6.40;91.60
10903;DHT22;5504;47.312;11.060;2024-02-23T05:58:50;6.50;91.50
10903;DHT22;5504;47.312;11.060;2024-02-23T06:01:20;6.40;91.50
10903;DHT22;5504;47.312;11.060;2024-02-23T06:03:46;6.30;91.30
10903;DHT22;5504;47.312;11.060;2024-02-23T06:06:12;6.30;91.30
10903;DHT22;5504;47.312;11.060;2024-02-23T06:08:38;6.20;91.40
10903;DHT22;5504;47.312;11.060;2024-02-23T06:11:04;6.00;91.20
10903;DHT22;5504;47.312;11.060;2024-02-23T06:13:30;6.00;91.30
10903;DHT22;5504;47.312;11.060;2024-02-23T06:15:56;6.00;91.10
10903;DHT22;5504;47.312;11.060;2024-02-23T06:18:22;6.00;91.00
10903;DHT22;5504;47.312;11.060;2024-02-23T06:20:49;6.00;91.00
10903;DHT22;5504;47.312;11.060;2024-02-23T06:23:16;5.90;91.00
10903;DHT22;5504;47.312;11.060;2024-02-23T06:25:43;5.80;91.00
10903;DHT22;5504;47.312;11.060;2024-02-23T06:28:11;5.80;91.10
10903;DHT22;5504;47.312;11.060;2024-02-23T06:30:37;5.60;91.50
10903;DHT22;5504;47.312;11.060;2024-02-23T06:33:03;5.70;91.60
10903;DHT22;5504;47.312;11.060;2024-02-23T06:35:30;5.70;91.80
10903;DHT22;5504;47.312;11.060;2024-02-23T06:37:56;5.80;91.80
10903;DHT22;5504;47.312;11.060;2024-02-23T06:40:22;5.70;91.50
10903;DHT22;5504;47.312;11.060;2024-02-23T06:42:48;5.50;91.30
10903;DHT22;5504;47.312;11.060;2024-02-23T06:45:13;5.60;91.80
10903;DHT22;5504;47.312;11.060;2024-02-23T06:47:39;5.50;92.00
10903;DHT22;5504;47.312;11.060;2024-02-23T06:50:06;5.50;92.10
10903;DHT22;5504;47.312;11.060;2024-02-23T06:52:32;5.60;92.20
10903;DHT22;5504;47.312;11.060;2024-02-23T06:54:58;5.60;92.20
10903;DHT22;5504;47.312;11.060;2024-02-23T06:57:25;5.40;91.90
10903;DHT22;5504;47.312;11.060;2024-02-23T06:59:52;5.60;92.30
10903;DHT22;5504;47.312;11.060;2024-02-23T07:02:17;5.60;92.00
10903;DHT22;5504;47.312;11.060;2024-02-23T07:04:43;5.60;92.10
10903;DHT22;5504;47.312;11.060;2024-02-23T07:07:09;5.30;92.10
10903;DHT22;5504;47.312;11.060;2024-02-23T07:09:37;5.50;92.40
10903;DHT22;5504;47.312;11.060;2024-02-23T07:12:03;5.70;92.40
10903;DHT22;5504;47.312;11.060;2024-02-23T07:14:28;5.80;92.20
10903;DHT22;5504;47.312;11.060;2024-02-23T07:16:54;5.80;91.80
10903;DHT22;5504;47.312;11.060;2024-02-23T07:19:20;5.80;91.40
10903;DHT22;5504;47.312;11.060;2024-02-23T07:21:46;5.70;91.40
10903;DHT22;5504;47.312;11.060;2024-02-23T07:24:14;5.60;91.50
10903;DHT22;5504;47.312;11.060;2024-02-23T07:26:39;5.80;91.50
10903;DHT22;5504;47.312;11.060;2024-02-23T07:29:06;6.00;91.40
10903;DHT22;5504;47.312;11.060;2024-02-23T07:31:32;5.80;90.80
10903;DHT22;5504;47.312;11.060;2024-02-23T07:33:58;5.40;91.20
10903;DHT22;5504;47.312;11.060;2024-02-23T07:36:24;5.60;91.60
10903;DHT22;5504;47.312;11.060;2024-02-23T07:38:49;5.90;91.40
10903;DHT22;5504;47.312;11.060;2024-02-23T07:41:15;5.90;91.30
10903;DHT22;5504;47.312;11.060;2024-02-23T07:43:43;5.90;91.20
10903;DHT22;5504;47.312;11.060;2024-02-23T07:46:09;6.00;91.10
10903;DHT22;5504;47.312;11.060;2024-02-23T07:48:35;6.00;90.90
10903;DHT22;5504;47.312;11.060;2024-02-23T07:51:02;5.90;90.90
10903;DHT22;5504;47.312;11.060;2024-02-23T07:53:28;5.90;91.00
10903;DHT22;5504;47.312;11.060;2024-02-23T07:55:54;5.90;91.10
10903;DHT22;5504;47.312;11.060;2024-02-23T07:58:20;5.90;91.20
10903;DHT22;5504;47.312;11.060;2024-02-23T08:00:46;5.80;91.30
10903;DHT22;5504;47.312;11.060;2024-02-23T08:03:12;5.80;91.40
10903;DHT22;5504;47.312;11.060;2024-02-23T08:05:38;5.80;91.50
10903;DHT22;5504;47.312;11.060;2024-02-23T08:08:04;5.80;91.40
10903;DHT22;5504;47.312;11.060;2024-02-23T08:10:32;5.70;91.20
10903;DHT22;5504;47.312;11.060;2024-02-23T08:12:59;5.60;91.10
10903;DHT22;5504;47.312;11.060;2024-02-23T08:15:25;5.60;91.10
10903;DHT22;5504;47.312;11.060;2024-02-23T08:17:51;5.50;91.10
10903;DHT22;5504;47.312;11.060;2024-02-23T08:20:17;5.50;91.40
10903;DHT22;5504;47.312;11.060;2024-02-23T08:22:42;5.50;91.50
10903;DHT22;5504;47.312;11.060;2024-02-23T08:25:09;5.30;91.40
10903;DHT22;5504;47.312;11.060;2024-02-23T08:27:34;5.30;91.40
10903;DHT22;5504;47.312;11.060;2024-02-23T08:30:00;5.20;91.50
10903;DHT22;5504;47.312;11.060;2024-02-23T08:32:26;5.20;91.30
10903;DHT22;5504;47.312;11.060;2024-02-23T08:34:51;5.20;91.10
10903;DHT22;5504;47.312;11.060;2024-02-23T08:37:25;5.10;91.20
10903;DHT22;5504;47.312;11.060;2024-02-23T08:39:52;5.10;91.10
10903;DHT22;5504;47.312;11.060;2024-02-23T08:42:17;4.90;91.10
10903;DHT22;5504;47.312;11.060;2024-02-23T08:44:43;4.90;91.60
10903;DHT22;5504;47.312;11.060;2024-02-23T08:47:09;4.90;91.70
10903;DHT22;5504;47.312;11.060;2024-02-23T08:49:34;4.90;91.40
10903;DHT22;5504;47.312;11.060;2024-02-23T08:52:00;4.90;91.20
10903;DHT22;5504;47.312;11.060;2024-02-23T08:54:27;4.90;91.40
10903;DHT22;5504;47.312;11.060;2024-02-23T08:56:53;5.00;91.30
10903;DHT22;5504;47.312;11.060;2024-02-23T08:59:19;5.10;91.30
10903;DHT22;5504;47.312;11.060;2024-02-23T09:01:45;5.00;91.10
10903;DHT22;5504;47.312;11.060;2024-02-23T09:04:12;4.90;91.00
10903;DHT22;5504;47.312;11.060;2024-02-23T09:06:38;4.90;91.30
10903;DHT22;5504;47.312;11.060;2024-02-23T09:09:04;4.90;91.50
10903;DHT22;5504;47.312;11.060;2024-02-23T09:11:30;4.80;91.60
10903;DHT22;5504;47.312;11.060;2024-02-23T09:13:55;4.80;91.60
10903;DHT22;5504;47.312;11.060;2024-02-23T09:16:21;4.90;91.30
10903;DHT22;5504;47.312;11.060;2024-02-23T09:18:50;4.90;91.10
10903;DHT22;5504;47.312;11.060;2024-02-23T09:21:16;4.80;91.40
10903;DHT22;5504;47.312;11.060;2024-02-23T09:23:42;4.80;91.10
10903;DHT22;5504;47.312;11.060;2024-02-23T09:26:11;4.70;91.30
10903;DHT22;5504;47.312;11.060;2024-02-23T09:28:37;4.80;91.20
10903;DHT22;5504;47.312;11.060;2024-02-23T09:31:03;4.60;91.20
10903;DHT22;5504;47.312;11.060;2024-02-23T09:33:30;4.60;91.40
10903;DHT22;5504;47.312;11.060;2024-02-23T09:35:57;4.60;91.40
10903;DHT22;5504;47.312;11.060;2024-02-23T09:38:22;4.60;91.30
10903;DHT22;5504;47.312;11.060;2024-02-23T09:40:51;4.50;91.10
10903;DHT22;5504;47.312;11.060;2024-02-23T09:43:17;4.60;91.20
10903;DHT22;5504;47.312;11.060;2024-02-23T09:45:46;4.50;91.00
10903;DHT22;5504;47.312;11.060;2024-02-23T09:48:13;4.50;91.00
10903;DHT22;5504;47.312;11.060;2024-02-23T09:50:41;4.40;91.10
10903;DHT22;5504;47.312;11.060;2024-02-23T09:53:07;4.40;91.30
10903;DHT22;5504;47.312;11.060;2024-02-23T09:55:35;4.40;91.00
10903;DHT22;5504;47.312;11.060;2024-02-23T09:58:02;4.40;90.80
10903;DHT22;5504;47.312;11.060;2024-02-23T10:00:29;4.30;91.10
10903;DHT22;5504;47.312;11.060;2024-02-23T10:02:56;4.30;90.90
10903;DHT22;5504;47.312;11.060;2024-02-23T10:05:25;4.10;91.00
10903;DHT22;5504;47.312;11.060;2024-02-23T10:07:54;4.30;91.00
10903;DHT22;5504;47.312;11.060;2024-02-23T10:10:30;4.30;91.10
10903;DHT22;5504;47.312;11.060;2024-02-23T10:12:57;4.30;91.20
10903;DHT22;5504;47.312;11.060;2024-02-23T10:15:23;4.30;91.20
10903;DHT22;5504;47.312;11.060;2024-02-23T10:17:49;4.30;91.10
10903;DHT22;5504;47.312;11.060;2024-02-23T10:20:15;4.30;91.30
10903;DHT22;5504;47.312;11.060;2024-02-23T10:22:41;4.30;91.20
10903;DHT22;5504;47.312;11.060;2024-02-23T10:25:07;4.30;91.40
10903;DHT22;5504;47.312;11.060;2024-02-23T10:27:33;4.30;91.20
10903;DHT22;5504;47.312;11.060;2024-02-23T10:29:58;4.30;91.50
10903;DHT22;5504;47.312;11.060;2024-02-23T10:32:25;4.50;91.30
10903;DHT22;5504;47.312;11.060;2024-02-23T10:34:55;4.10;91.30
10903;DHT22;5504;47.312;11.060;2024-02-23T10:37:25;3.90;91.70
10903;DHT22;5504;47.312;11.060;2024-02-23T10:39:55;4.10;92.00
10903;DHT22;5504;47.312;11.060;2024-02-23T10:42:23;3.90;92.00
10903;DHT22;5504;47.312;11.060;2024-02-23T10:44:51;4.10;91.80
10903;DHT22;5504;47.312;11.060;2024-02-23T10:47:19;4.10;91.70
10903;DHT22;5504;47.312;11.060;2024-02-23T10:49:46;4.10;91.60
10903;DHT22;5504;47.312;11.060;2024-02-23T10:52:12;4.30;91.80
10903;DHT22;5504;47.312;11.060;2024-02-23T10:54:40;4.30;91.80
10903;DHT22;5504;47.312;11.060;2024-02-23T10:57:06;4.30;91.80
10903;DHT22;5504;47.312;11.060;2024-02-23T10:59:32;4.40;91.80
10903;DHT22;5504;47.312;11.060;2024-02-23T11:01:59;4.40;91.30
10903;DHT22;5504;47.312;11.060;2024-02-23T11:04:26;4.50;91.40
10903;DHT22;5504;47.312;11.060;2024-02-23T11:06:56;4.50;91.30
10903;DHT22;5504;47.312;11.060;2024-02-23T11:09:24;4.50;91.20
10903;DHT22;5504;47.312;11.060;2024-02-23T11:11:57;4.60;91.30
10903;DHT22;5504;47.312;11.060;2024-02-23T11:14:35;4.70;91.00
10903;DHT22;5504;47.312;11.060;2024-02-23T11:17:02;4.80;91.20
10903;DHT22;5504;47.312;11.060;2024-02-23T11:19:36;4.70;90.80
10903;DHT22;5504;47.312;11.060;2024-02-23T11:22:02;4.70;90.90
10903;DHT22;5504;47.312;11.060;2024-02-23T11:24:29;4.60;90.60
10903;DHT22;5504;47.312;11.060;2024-02-23T11:27:00;4.70;90.90
10903;DHT22;5504;47.312;11.060;2024-02-23T11:29:33;4.70;90.70
10903;DHT22;5504;47.312;11.060;2024-02-23T11:32:00;4.60;90.60
10903;DHT22;5504;47.312;11.060;2024-02-23T11:34:29;4.60;90.70
10903;DHT22;5504;47.312;11.060;2024-02-23T11:36:56;4.70;90.90
10903;DHT22;5504;47.312;11.060;2024-02-23T11:39:23;4.70;91.10
10903;DHT22;5504;47.312;11.060;2024-02-23T11:41:50;4.70;90.40
10903;DHT22;5504;47.312;11.060;2024-02-23T11:44:16;4.20;90.70
10903;DHT22;5504;47.312;11.060;2024-02-23T11:46:44;4.30;91.30
10903;DHT22;5504;47.312;11.060;2024-02-23T11:49:14;4.50;91.30
10903;DHT22;5504;47.312;11.060;2024-02-23T11:51:40;4.60;91.10
10903;DHT22;5504;47.312;11.060;2024-02-23T11:54:06;4.60;90.80
10903;DHT22;5504;47.312;11.060;2024-02-23T11:56:32;4.70;90.60
10903;DHT22;5504;47.312;11.060;2024-02-23T11:58:58;4.80;90.60
10903;DHT22;5504;47.312;11.060;2024-02-23T12:01:24;4.70;90.70
10903;DHT22;5504;47.312;11.060;2024-02-23T12:03:49;4.90;90.80
10903;DHT22;5504;47.312;11.060;2024-02-23T12:06:15;4.80;90.50
10903;DHT22;5504;47.312;11.060;2024-02-23T12:08:42;4.70;90.60
10903;DHT22;5504;47.312;11.060;2024-02-23T12:11:09;4.80;90.90
10903;DHT22;5504;47.312;11.060;2024-02-23T12:13:36;4.90;90.80
10903;DHT22;5504;47.312;11.060;2024-02-23T12:16:03;4.90;91.00
10903;DHT22;5504;47.312;11.060;2024-02-23T12:18:28;5.00;90.80
10903;DHT22;5504;47.312;11.060;2024-02-23T12:21:07;5.00;90.90
10903;DHT22;5504;47.312;11.060;2024-02-23T12:23:40;5.00;90.90
10903;DHT22;5504;47.312;11.060;2024-02-23T12:26:06;5.00;90.70
10903;DHT22;5504;47.312;11.060;2024-02-23T12:28:32;5.10;90.90
10903;DHT22;5504;47.312;11.060;2024-02-23T12:31:02;5.10;90.70
10903;DHT22;5504;47.312;11.060;2024-02-23T12:33:29;5.00;90.40
10903;DHT22;5504;47.312;11.060;2024-02-23T12:36:02;4.90;90.30
10903;DHT22;5504;47.312;11.060;2024-02-23T12:38:28;4.90;90.50
10903;DHT22;5504;47.312;11.060;2024-02-23T12:40:54;4.90;90.50
10903;DHT22;5504;47.312;11.060;2024-02-23T12:43:20;4.80;90.90
10903;DHT22;5504;47.312;11.060;2024-02-23T12:45:53;5.00;90.90
10903;DHT22;5504;47.312;11.060;2024-02-23T12:48:20;5.10;90.70
10903;DHT22;5504;47.312;11.060;2024-02-23T12:50:47;5.10;90.40
10903;DHT22;5504;47.312;11.060;2024-02-23T12:53:37;5.20;90.50
10903;DHT22;5504;47.312;11.060;2024-02-23T12:56:03;5.20;90.40
10903;DHT22;5504;47.312;11.060;2024-02-23T12:58:30;5.30;90.70
10903;DHT22;5504;47.312;11.060;2024-02-23T13:00:56;5.30;90.70
10903;DHT22;5504;47.312;11.060;2024-02-23T13:03:24;5.30;90.40
10903;DHT22;5504;47.312;11.060;2024-02-23T13:05:50;5.10;90.10
10903;DHT22;5504;47.312;11.060;2024-02-23T13:08:16;5.20;90.50
10903;DHT22;5504;47.312;11.060;2024-02-23T13:10:43;5.10;90.10
10903;DHT22;5504;47.312;11.060;2024-02-23T13:13:09;5.20;90.30
10903;DHT22;5504;47.312;11.060;2024-02-23T13:15:35;5.30;90.60
10903;DHT22;5504;47.312;11.060;2024-02-23T13:18:03;5.40;90.40
10903;DHT22;5504;47.312;11.060;2024-02-23T13:20:30;5.40;90.20
10903;DHT22;5504;47.312;11.060;2024-02-23T13:22:56;5.40;89.90
10903;DHT22;5504;47.312;11.060;2024-02-23T13:25:21;5.40;89.60
10903;DHT22;5504;47.312;11.060;2024-02-23T13:27:47;5.40;89.70
10903;DHT22;5504;47.312;11.060;2024-02-23T13:30:13;5.40;89.80
10903;DHT22;5504;47.312;11.060;2024-02-23T13:32:39;5.40;90.00
10903;DHT22;5504;47.312;11.060;2024-02-23T13:35:05;5.30;89.70
10903;DHT22;5504;47.312;11.060;2024-02-23T13:37:32;5.10;89.20
10903;DHT22;5504;47.312;11.060;2024-02-23T13:39:58;5.10;90.00
10903;DHT22;5504;47.312;11.060;2024-02-23T13:42:23;5.10;90.10
10903;DHT22;5504;47.312;11.060;2024-02-23T13:44:49;5.00;89.90
10903;DHT22;5504;47.312;11.060;2024-02-23T13:47:15;5.00;90.20
10903;DHT22;5504;47.312;11.060;2024-02-23T13:49:41;5.00;90.40
10903;DHT22;5504;47.312;11.060;2024-02-23T13:52:06;5.00;90.30
10903;DHT22;5504;47.312;11.060;2024-02-23T13:54:32;5.00;90.20
10903;DHT22;5504;47.312;11.060;2024-02-23T13:56:58;5.00;89.90
10903;DHT22;5504;47.312;11.060;2024-02-23T13:59:24;4.80;90.00
10903;DHT22;5504;47.312;11.060;2024-02-23T14:01:50;4.70;90.70
10903;DHT22;5504;47.312;11.060;2024-02-23T14:04:16;4.70;90.40
10903;DHT22;5504;47.312;11.060;2024-02-23T14:06:43;4.60;90.20
10903;DHT22;5504;47.312;11.060;2024-02-23T14:09:09;4.60;90.50
10903;DHT22;5504;47.312;11.060;2024-02-23T14:11:35;4.70;90.50
10903;DHT22;5504;47.312;11.060;2024-02-23T14:14:01;4.70;90.70
10903;DHT22;5504;47.312;11.060;2024-02-23T14:16:28;4.70;90.40
10903;DHT22;5504;47.312;11.060;2024-02-23T14:18:54;4.70;90.30
10903;DHT22;5504;47.312;11.060;2024-02-23T14:21:20;4.70;90.50
10903;DHT22;5504;47.312;11.060;2024-02-23T14:23:48;4.70;90.40
10903;DHT22;5504;47.312;11.060;2024-02-23T14:26:14;4.70;90.70
10903;DHT22;5504;47.312;11.060;2024-02-23T14:28:39;4.80;90.90
10903;DHT22;5504;47.312;11.060;2024-02-23T14:31:06;4.90;90.80
10903;DHT22;5504;47.312;11.060;2024-02-23T14:33:32;4.90;90.80
10903;DHT22;5504;47.312;11.060;2024-02-23T14:35:58;4.90;90.70
10903;DHT22;5504;47.312;11.060;2024-02-23T14:38:24;5.00;90.60
10903;DHT22;5504;47.312;11.060;2024-02-23T14:40:50;5.00;90.50
10903;DHT22;5504;47.312;11.060;2024-02-23T14:43:16;4.80;90.30
10903;DHT22;5504;47.312;11.060;2024-02-23T14:45:41;4.90;90.70
10903;DHT22;5504;47.312;11.060;2024-02-23T14:48:07;4.80;90.50
10903;DHT22;5504;47.312;11.060;2024-02-23T14:50:33;4.70;90.40
10903;DHT22;5504;47.312;11.060;2024-02-23T14:52:59;4.50;90.70
10903;DHT22;5504;47.312;11.060;2024-02-23T14:55:25;4.50;91.10
10903;DHT22;5504;47.312;11.060;2024-02-23T14:57:51;4.50;91.20
10903;DHT22;5504;47.312;11.060;2024-02-23T15:00:17;4.50;91.10
10903;DHT22;5504;47.312;11.060;2024-02-23T15:02:43;4.60;91.00
10903;DHT22;5504;47.312;11.060;2024-02-23T15:05:09;4.60;90.80
10903;DHT22;5504;47.312;11.060;2024-02-23T15:07:36;4.60;90.80
10903;DHT22;5504;47.312;11.060;2024-02-23T15:10:03;4.50;90.70
10903;DHT22;5504;47.312;11.060;2024-02-23T15:12:35;4.50;90.90
10903;DHT22;5504;47.312;11.060;2024-02-23T15:15:01;4.40;91.20
10903;DHT22;5504;47.312;11.060;2024-02-23T15:17:27;4.40;91.00
10903;DHT22;5504;47.312;11.060;2024-02-23T15:19:52;4.50;91.20
10903;DHT22;5504;47.312;11.060;2024-02-23T15:22:18;4.60;91.20
10903;DHT22;5504;47.312;11.060;2024-02-23T15:24:45;4.50;91.00
10903;DHT22;5504;47.312;11.060;2024-02-23T15:27:18;4.40;91.10
10903;DHT22;5504;47.312;11.060;2024-02-23T15:29:45;4.40;91.10
10903;DHT22;5504;47.312;11.060;2024-02-23T15:32:11;4.50;91.10
10903;DHT22;5504;47.312;11.060;2024-02-23T15:34:37;4.50;90.90
10903;DHT22;5504;47.312;11.060;2024-02-23T15:37:03;4.40;91.00
10903;DHT22;5504;47.312;11.060;2024-02-23T15:39:29;4.30;91.10